Terminal Aerodrome Forecast
Issued by NWS

Current Version | Previous Version | Graphics & Text | Print | Product List | Glossary On
Versions: 1 2 3 4 5 6 7 8 9 10 11 12 13 14 15 16 17 18 19 20 21 22 23
211
FTUS41 KILN 041132
TAFLCK
TAF
KLCK 041132Z 0412/0512 21008KT P6SM OVC100
      TEMPO 0412/0414 5SM BR
     FM041600 23012G20KT P6SM VCSH SCT040 OVC080
     FM041900 23012G20KT 4SM -SHRA VCTS OVC040CB
     FM042200 24012KT 4SM -SHRA BR SCT015 OVC025
     FM050200 32012KT P6SM VCSH OVC015
     FM050600 32010KT P6SM VCSH OVC006=

USA.gov is the U.S. government's official web portal to all federal, state and local government web resources and services.